Cumberland Center, ME (04021)

7:29 PM EST on December 17, 2014 (GMT -0500)
Cumberland Center | Change Station
CLOSE
Current Station
Personal Weather Station
Location: Cumberland, ME
Elevation: 167 ft
Nearby Weather Stations

Elev 167 ft 43.81 °N, 70.25 °W | Updated 25 seconds ago

Overcast
Overcast
35.9 °F
Feels Like 32 °F
N
5.0
Wind Variable Wind from NE
Gusts 6.0 mph

Today
High -- | Low -- °F
--% Chance of Precip.
Yesterday
High -- | Low -- °F
Precip. -- in
7:09 AM 4:04 PM
Waning Crescent, 18% visible
Pressure 29.69 in
Visibility 6.0 miles
Clouds Overcast 3000 ft
Windchill 32 °F
Dew Point 35 °F
Humidity 97%
Rainfall 0.60 in
Snow Depth Not available.
UV 0 out of 12
Pollen .10 out of 12
Air Quality Not available.
Flu Activity Not available.
METAR KPWM 172351Z 01010KT 6SM -RA BR OVC030 04/02 A2969 RMK AO2 RAE28B45 SLP053 P0000 60006 T00390022 10056 20039 50008

More Conditions Fewer Conditions

Pressure 29.69 in
Visibility 6.0 miles
Clouds Overcast 3000 ft
Windchill 32 °F
Dew Point 35 °F
Humidity 97%
Rainfall 0.60 in
Snow Depth Not available.
UV 0 out of 12
Pollen .10 out of 12
Air Quality Not available.
Flu Activity Not available.
METAR KPWM 172351Z 01010KT 6SM -RA BR OVC030 04/02 A2969 RMK AO2 RAE28B45 SLP053 P0000 60006 T00390022 10056 20039 50008

More Conditions Fewer Conditions

10-Day Weather Forecast

Almanac

Astronomy

Dec. 17, 2014 Rise Set
Actual Time
Civil Twilight
Nautical Twilight
Astronomical Twilight
Moon
Length of Visible Light
Length of Day
Tomorrow will be .
, % of the Moon is Illuminated

Today's Extremes

State Highs State Lows

Community

WunderPhotos

Upload Photos

1,778,835 photos uploaded!

WunderBlogs® & News

Nearby

Air Quality

  Air Quality AQ Index Pollutant
Not available.

Snow Depth

Station Depth Elevation

Earthquake Activity

City Distance Mag. Time & Date
Minimum magnitude displayed is 2.5.

Coastal Water Temperatures

Place Temperature

Nearby Weather Stations